KEMP/EMP METAR and TAF weather

Enter ICAO airport designator
Station Type Date Time Source
KEMP METAR 2018/06/25 16:53 UTC NOAA

KEMP 251653Z AUTO 27009KT 10SM FEW019 BKN034 24/18 A2991 RMK AO2 SLP120 T02390183


Station Type Date Time Source
KEMP Decoded METAR 2018/06/25 16:53 UTC NOAA

EMPORIA MUNICIPAL AIRPORT, KS, United States (KEMP) 38-20N 96-12W 367M
Jun 25, 2018 - 12:53 PM EDT / 2018.06.25 1653 UTC
Wind: from the W (270 degrees) at 10 MPH (9 KT):0
Visibility: 10 mile(s):0
Sky conditions: mostly cloudy
Temperature: 75.0 F (23.9 C)
Dew Point: 64.9 F (18.3 C)
Relative Humidity: 70%
Pressure (altimeter): 29.91 in. Hg (1012 hPa)
ob: KEMP 251653Z AUTO 27009KT 10SM FEW019 BKN034 24/18 A2991 RMK AO2 SLP120 T02390183
cycle: 17

Station Type Date Time Source
KEMP TAF UTC NOAA

Error!


Example: see airport list